createdAt,value
2022-09-02T00:01:38.018Z,79.65
2022-09-02T00:04:21.528Z,79.72
2022-09-02T00:06:54.220Z,79.85
2022-09-02T00:09:26.053Z,80.05
2022-09-02T00:11:56.572Z,80.13
2022-09-02T00:14:33.500Z,80.16
2022-09-02T00:17:03.794Z,80.14
2022-09-02T00:19:32.344Z,80.26
2022-09-02T00:22:02.572Z,80.37
2022-09-02T00:24:31.530Z,80.40
2022-09-02T00:27:00.100Z,80.38
2022-09-02T00:29:29.058Z,80.54
2022-09-02T00:31:57.562Z,80.60
2022-09-02T00:34:26.433Z,80.72
2022-09-02T00:36:54.793Z,81.09
2022-09-02T00:39:23.147Z,81.37
2022-09-02T00:41:51.729Z,81.52
2022-09-02T00:44:22.898Z,81.95
2022-09-02T00:46:51.206Z,81.91
2022-09-02T00:49:36.241Z,82.05
2022-09-02T00:52:20.904Z,82.14
2022-09-02T00:54:56.771Z,82.30
2022-09-02T00:57:34.543Z,82.38
2022-09-02T01:00:17.798Z,82.41
2022-09-02T01:02:55.072Z,82.47
2022-09-02T01:05:29.775Z,82.72
2022-09-02T01:07:59.172Z,82.91
2022-09-02T01:10:35.110Z,83.17
2022-09-02T01:13:12.015Z,83.33
2022-09-02T01:15:46.200Z,83.54
2022-09-02T01:18:20.911Z,83.59
2022-09-02T01:20:49.280Z,83.67
2022-09-02T01:23:19.362Z,83.51
2022-09-02T01:25:48.605Z,83.63
2022-09-02T01:28:20.059Z,83.84
2022-09-02T01:30:53.711Z,83.91
2022-09-02T01:33:25.396Z,83.92
2022-09-02T01:35:54.930Z,84.10
2022-09-02T01:38:26.020Z,84.14
2022-09-02T01:40:54.536Z,84.30
2022-09-02T01:43:26.577Z,84.31
2022-09-02T01:45:58.644Z,84.26
2022-09-02T01:48:27.401Z,84.38
2022-09-02T01:51:01.587Z,84.30
2022-09-02T01:53:31.668Z,84.48
2022-09-02T01:56:00.393Z,84.47
2022-09-02T01:58:28.891Z,84.58
2022-09-02T02:00:57.321Z,84.70
2022-09-02T02:03:26.087Z,84.81
2022-09-02T02:05:55.489Z,84.92
2022-09-02T02:08:24.350Z,85.04
2022-09-02T02:10:52.703Z,85.31
2022-09-02T02:13:21.082Z,85.44
2022-09-02T02:15:49.565Z,85.62
2022-09-02T02:18:18.008Z,85.55
2022-09-02T02:20:46.344Z,85.86
2022-09-02T02:23:14.855Z,86.01
2022-09-02T02:25:43.656Z,86.15
2022-09-02T02:28:12.003Z,86.28
2022-09-02T02:30:40.403Z,86.38
2022-09-02T02:33:08.752Z,86.59
2022-09-02T02:35:37.140Z,86.56
2022-09-02T02:38:05.707Z,86.66
2022-09-02T02:40:34.211Z,86.55
2022-09-02T02:43:02.534Z,86.63
2022-09-02T02:45:30.821Z,86.58
2022-09-02T02:47:59.590Z,86.85
2022-09-02T02:50:28.100Z,86.83
2022-09-02T02:52:56.670Z,86.68
2022-09-02T02:55:26.231Z,86.77
2022-09-02T02:57:54.664Z,86.67
2022-09-02T03:00:28.662Z,86.71
2022-09-02T03:03:05.635Z,86.82
2022-09-02T03:05:37.804Z,87.05
2022-09-02T03:08:09.906Z,87.11
2022-09-02T03:10:42.044Z,87.21
2022-09-02T03:13:12.082Z,87.02
2022-09-02T03:15:40.532Z,87.15
2022-09-02T03:18:09.134Z,87.39
2022-09-02T03:20:39.952Z,87.56
2022-09-02T03:23:08.834Z,87.65
2022-09-02T03:25:42.866Z,87.81
2022-09-02T03:28:35.824Z,87.90
2022-09-02T03:31:05.490Z,87.95
2022-09-02T03:33:34.415Z,88.02
2022-09-02T03:36:03.102Z,88.07
2022-09-02T03:38:31.426Z,88.17
2022-09-02T03:40:59.773Z,88.31
2022-09-02T03:43:28.204Z,88.29
2022-09-02T03:45:56.762Z,88.32
2022-09-02T03:48:25.117Z,88.25
2022-09-02T03:50:53.430Z,88.32
2022-09-02T03:53:21.893Z,88.39
2022-09-02T03:55:50.863Z,88.58
2022-09-02T03:58:19.886Z,88.59
2022-09-02T04:00:54.769Z,88.66
2022-09-02T04:03:23.516Z,88.69
2022-09-02T04:05:52.578Z,88.97
2022-09-02T04:08:21.795Z,88.91
2022-09-02T04:10:50.716Z,89.03
2022-09-02T04:13:19.472Z,89.15
2022-09-02T04:15:49.220Z,89.27
2022-09-02T04:18:18.464Z,89.31
2022-09-02T04:20:46.994Z,89.52
2022-09-02T04:23:16.602Z,89.70
2022-09-02T04:25:45.311Z,89.83
2022-09-02T04:28:13.612Z,89.97
2022-09-02T04:30:43.414Z,90.07
2022-09-02T04:33:12.321Z,90.28
2022-09-02T04:35:48.193Z,90.55
2022-09-02T04:38:17.888Z,90.65
2022-09-02T04:40:47.860Z,90.76
2022-09-02T04:43:16.337Z,90.72
2022-09-02T04:45:46.446Z,90.70
2022-09-02T04:48:15.240Z,90.96
2022-09-02T04:50:43.589Z,91.03
2022-09-02T04:53:12.464Z,91.03
2022-09-02T04:55:42.679Z,91.05
2022-09-02T04:58:11.674Z,91.11
2022-09-02T05:00:40.369Z,91.07
2022-09-02T05:03:08.800Z,91.06
2022-09-02T05:05:39.155Z,90.98
2022-09-02T05:08:07.889Z,91.01
2022-09-02T05:10:36.527Z,91.15
2022-09-02T05:13:05.030Z,91.04
2022-09-02T05:15:33.549Z,91.04
2022-09-02T05:18:01.980Z,90.93
2022-09-02T05:20:32.307Z,90.92
2022-09-02T05:26:13.605Z,91.04
2022-09-02T05:28:43.546Z,91.11
2022-09-02T05:31:18.116Z,91.11
2022-09-02T05:33:47.678Z,91.03
2022-09-02T05:36:20.496Z,91.11
2022-09-02T05:38:49.783Z,91.09
2022-09-02T05:41:24.287Z,91.23
2022-09-02T05:43:56.337Z,91.09
2022-09-02T05:46:26.057Z,90.99
2022-09-02T05:49:07.832Z,91.02
2022-09-02T05:51:55.926Z,90.74
2022-09-02T05:54:40.995Z,90.31
2022-09-02T05:57:14.466Z,90.06
2022-09-02T05:59:44.194Z,89.62
2022-09-02T06:02:14.981Z,89.23
2022-09-02T06:04:49.289Z,89.08
2022-09-02T06:07:36.679Z,88.97
2022-09-02T06:10:07.596Z,88.78
2022-09-02T06:12:39.482Z,88.62
2022-09-02T06:15:12.543Z,88.23
2022-09-02T06:17:40.904Z,88.14
2022-09-02T06:20:10.027Z,87.91
2022-09-02T06:22:40.164Z,87.84
2022-09-02T06:25:27.696Z,87.63
2022-09-02T06:28:06.375Z,87.79
2022-09-02T06:30:43.438Z,87.65
2022-09-02T06:33:12.108Z,87.62
2022-09-02T06:35:45.388Z,87.19
2022-09-02T06:38:17.625Z,87.09
2022-09-02T06:40:50.437Z,86.92
2022-09-02T06:43:20.166Z,86.74
2022-09-02T06:45:48.824Z,86.56
2022-09-02T06:48:17.266Z,86.35
2022-09-02T06:50:50.083Z,86.24
2022-09-02T06:53:19.459Z,85.99
2022-09-02T06:55:49.072Z,85.94
2022-09-02T06:58:17.963Z,85.77
2022-09-02T07:01:29.415Z,85.66
2022-09-02T07:04:19.028Z,85.48
2022-09-02T07:06:52.754Z,85.39
2022-09-02T07:09:31.331Z,85.22
2022-09-02T07:12:04.585Z,85.26
2022-09-02T07:14:42.390Z,85.14
2022-09-02T07:17:17.690Z,85.19
2022-09-02T07:19:46.074Z,84.74
2022-09-02T07:22:15.074Z,84.27
2022-09-02T07:24:47.434Z,84.35
2022-09-02T07:27:15.903Z,84.24
2022-09-02T07:29:45.976Z,84.00
2022-09-02T07:32:18.787Z,84.09
2022-09-02T07:34:47.506Z,83.80
2022-09-02T07:37:15.871Z,83.65
2022-09-02T07:39:45.338Z,83.05
2022-09-02T07:42:14.081Z,82.94
2022-09-02T07:44:42.572Z,82.73
2022-09-02T07:47:10.934Z,82.18
2022-09-02T07:52:29.447Z,81.90
2022-09-02T07:54:58.136Z,81.58
2022-09-02T07:57:26.667Z,81.43
2022-09-02T07:59:54.960Z,81.31
2022-09-02T08:02:23.636Z,81.29
2022-09-02T08:04:52.071Z,80.97
2022-09-02T08:07:24.356Z,80.43
2022-09-02T08:09:53.010Z,80.02
2022-09-02T08:12:22.445Z,79.95
2022-09-02T08:14:51.196Z,79.66
2022-09-02T08:17:19.700Z,79.51
2022-09-02T08:19:48.134Z,79.13
2022-09-02T08:22:16.493Z,78.99
2022-09-02T08:25:11.700Z,78.80
2022-09-02T08:27:41.328Z,78.57
2022-09-02T08:30:10.813Z,78.50
2022-09-02T08:32:40.498Z,78.19
2022-09-02T08:35:10.450Z,77.94
2022-09-02T08:37:39.174Z,77.78
2022-09-02T08:40:21.752Z,77.51
2022-09-02T08:42:54.428Z,77.25
2022-09-02T08:45:28.948Z,76.52
2022-09-02T08:48:10.650Z,76.13
2022-09-02T08:50:44.250Z,75.77
2022-09-02T08:53:32.571Z,75.15
2022-09-02T08:56:03.696Z,74.53
2022-09-02T08:58:47.267Z,74.11
2022-09-02T09:01:32.501Z,73.68
2022-09-02T09:04:18.856Z,73.27
2022-09-02T09:07:08.768Z,73.13
2022-09-02T09:10:32.256Z,72.72
2022-09-02T09:13:20.566Z,72.04
2022-09-02T09:16:08.200Z,71.48
2022-09-02T09:18:48.811Z,70.64
2022-09-02T09:21:19.171Z,70.07
2022-09-02T09:23:49.460Z,69.82
2022-09-02T09:26:26.518Z,70.18
2022-09-02T09:28:56.624Z,70.32
2022-09-02T09:31:31.185Z,70.36
2022-09-02T09:34:12.740Z,69.99
2022-09-02T09:36:40.996Z,69.85
2022-09-02T09:39:31.537Z,69.56
2022-09-02T09:42:03.630Z,69.03
2022-09-02T09:44:46.486Z,68.63
2022-09-02T09:47:22.916Z,68.00
2022-09-02T09:50:09.247Z,67.67
2022-09-02T09:52:43.585Z,67.60
2022-09-02T09:55:24.542Z,67.19
2022-09-02T09:58:09.698Z,67.11
2022-09-02T10:00:40.588Z,65.97
2022-09-02T10:03:43.910Z,65.28
2022-09-02T10:06:39.548Z,64.63
2022-09-02T10:09:36.499Z,64.12
2022-09-02T10:12:27.164Z,64.00
2022-09-02T10:14:56.094Z,63.80
2022-09-02T10:17:42.419Z,62.88
2022-09-02T10:20:22.899Z,61.88
2022-09-02T10:23:05.840Z,61.63
2022-09-02T10:25:54.675Z,61.53
2022-09-02T10:29:11.881Z,61.32
2022-09-02T10:32:17.677Z,60.76
2022-09-02T10:35:25.899Z,60.12
2022-09-02T10:38:52.850Z,59.84
2022-09-02T10:42:11.107Z,59.43
2022-09-02T10:45:12.274Z,59.28
2022-09-02T10:47:41.865Z,58.79
2022-09-02T10:51:03.173Z,58.37
2022-09-02T10:54:15.216Z,57.37
2022-09-02T10:57:12.529Z,57.27
2022-09-02T10:59:51.363Z,57.70
2022-09-02T11:02:35.234Z,57.48
2022-09-02T11:05:27.603Z,57.58
2022-09-02T11:08:09.913Z,56.81
2022-09-02T11:11:07.767Z,56.35
2022-09-02T11:13:56.694Z,55.98
2022-09-02T11:16:46.112Z,56.18
2022-09-02T11:19:55.914Z,56.23
2022-09-02T11:22:54.372Z,55.93
2022-09-02T11:26:00.290Z,56.36
2022-09-02T11:28:56.046Z,56.45
2022-09-02T11:32:05.841Z,55.54
2022-09-02T11:35:03.765Z,55.10
2022-09-02T11:38:16.612Z,54.64
2022-09-02T11:41:36.712Z,54.46
2022-09-02T11:44:40.812Z,54.41
2022-09-02T11:47:21.637Z,54.25
2022-09-02T11:50:45.705Z,54.53
2022-09-02T11:53:20.543Z,55.05
2022-09-02T11:56:02.657Z,55.60
2022-09-02T11:58:44.463Z,56.07
2022-09-02T12:01:15.869Z,55.16
2022-09-02T12:07:12.989Z,53.74
2022-09-02T12:09:48.068Z,53.27
2022-09-02T12:12:47.837Z,53.02
2022-09-02T12:15:19.909Z,52.81
2022-09-02T12:17:52.023Z,52.83
2022-09-02T12:21:23.388Z,52.80
2022-09-02T12:24:10.255Z,52.88
2022-09-02T12:26:53.573Z,53.23
2022-09-02T12:29:24.769Z,53.47
2022-09-02T12:31:55.991Z,53.28
2022-09-02T12:34:24.325Z,53.67
2022-09-02T12:37:55.697Z,53.59
2022-09-02T12:40:34.341Z,54.22
2022-09-02T12:43:17.857Z,54.45
2022-09-02T12:45:50.995Z,54.83
2022-09-02T12:48:43.320Z,55.32
2022-09-02T12:51:54.418Z,54.78
2022-09-02T12:54:49.664Z,53.72
2022-09-02T12:57:19.402Z,53.73
2022-09-02T12:59:48.689Z,53.90
2022-09-02T13:02:29.579Z,53.99
2022-09-02T13:06:21.272Z,53.11
2022-09-02T13:09:46.963Z,52.30
2022-09-02T13:12:59.122Z,51.11
2022-09-02T13:16:07.592Z,50.09
2022-09-02T13:19:32.868Z,48.89
2022-09-02T13:22:52.560Z,49.10
2022-09-02T13:26:27.623Z,48.63
2022-09-02T13:29:47.927Z,48.23
2022-09-02T13:32:28.803Z,48.08
2022-09-02T13:35:02.580Z,48.08
2022-09-02T13:37:39.410Z,48.52
2022-09-02T13:40:36.470Z,48.55
2022-09-02T13:43:27.204Z,48.35
2022-09-02T13:46:04.764Z,48.17
2022-09-02T13:48:34.321Z,47.44
2022-09-02T13:51:14.550Z,46.90
2022-09-02T13:56:36.753Z,47.61
2022-09-02T13:59:05.157Z,47.47
2022-09-02T14:01:40.232Z,47.76
2022-09-02T14:04:17.082Z,48.22
2022-09-02T14:06:48.017Z,47.53
2022-09-02T14:09:29.230Z,47.05
2022-09-02T14:12:00.685Z,46.59
2022-09-02T14:14:29.341Z,46.24
2022-09-02T14:17:21.514Z,45.74
2022-09-02T14:19:51.832Z,45.39
2022-09-02T14:22:29.454Z,45.47
2022-09-02T14:24:57.921Z,45.61
2022-09-02T14:27:26.723Z,45.53
2022-09-02T14:29:58.174Z,45.11
2022-09-02T14:32:28.469Z,44.86
2022-09-02T14:35:17.781Z,44.65
2022-09-02T14:37:55.877Z,44.47
2022-09-02T14:40:37.610Z,43.95
2022-09-02T14:43:16.308Z,43.47
2022-09-02T14:45:50.106Z,43.17
2022-09-02T14:48:27.009Z,43.45
2022-09-02T14:51:03.271Z,43.27
2022-09-02T14:53:32.468Z,43.29
2022-09-02T14:56:01.260Z,43.40
2022-09-02T14:58:30.412Z,43.06
2022-09-02T15:01:01.203Z,43.10
2022-09-02T15:03:32.070Z,43.08
2022-09-02T15:06:00.384Z,43.21
2022-09-02T15:08:28.796Z,43.11
2022-09-02T15:11:00.088Z,42.90
2022-09-02T15:13:35.065Z,42.98
2022-09-02T15:16:03.933Z,43.22
2022-09-02T15:18:32.350Z,43.28
2022-09-02T15:21:01.103Z,43.62
2022-09-02T15:23:36.256Z,43.99
2022-09-02T15:26:06.596Z,44.30
2022-09-02T15:28:38.791Z,44.68
2022-09-02T15:31:23.791Z,45.23
2022-09-02T15:34:04.027Z,45.54
2022-09-02T15:36:39.834Z,45.97
2022-09-02T15:39:31.229Z,46.27
2022-09-02T15:42:00.202Z,46.88
2022-09-02T15:44:29.648Z,47.28
2022-09-02T15:47:06.195Z,47.57
2022-09-02T15:49:35.426Z,47.79
2022-09-02T15:52:06.631Z,48.38
2022-09-02T15:54:35.071Z,48.76
2022-09-02T15:57:11.655Z,48.84
2022-09-02T15:59:42.653Z,48.59
2022-09-02T16:02:19.918Z,48.48
2022-09-02T16:04:54.330Z,47.80
2022-09-02T16:07:31.871Z,47.43
2022-09-02T16:10:08.338Z,46.27
2022-09-02T16:12:39.498Z,45.29
2022-09-02T16:15:14.511Z,45.23
2022-09-02T16:17:51.148Z,44.82
2022-09-02T16:20:22.319Z,44.94
2022-09-02T16:22:54.081Z,45.21
2022-09-02T16:25:25.593Z,45.37
2022-09-02T16:27:58.415Z,44.96
2022-09-02T16:30:35.155Z,44.75
2022-09-02T16:33:27.754Z,44.47
2022-09-02T16:36:01.758Z,43.99
2022-09-02T16:38:30.454Z,43.93
2022-09-02T16:41:00.164Z,43.88
2022-09-02T16:43:32.889Z,43.51
2022-09-02T16:46:08.035Z,43.35
2022-09-02T16:48:40.780Z,43.07
2022-09-02T16:51:30.765Z,43.15
2022-09-02T16:54:30.906Z,42.73
2022-09-02T16:57:01.561Z,42.55
2022-09-02T16:59:33.702Z,42.46
2022-09-02T17:02:03.159Z,42.28
2022-09-02T17:04:31.551Z,42.07
2022-09-02T17:07:00.117Z,41.96
2022-09-02T17:09:28.460Z,42.25
2022-09-02T17:12:03.312Z,42.53
2022-09-02T17:14:34.618Z,43.06
2022-09-02T17:17:06.682Z,43.36
2022-09-02T17:19:35.176Z,43.84
2022-09-02T17:22:08.515Z,44.39
2022-09-02T17:24:42.029Z,45.02
2022-09-02T17:27:17.293Z,45.49
2022-09-02T17:29:50.132Z,46.03
2022-09-02T17:32:27.318Z,46.88
2022-09-02T17:35:56.921Z,47.18
2022-09-02T17:38:49.119Z,48.05
2022-09-02T17:41:54.773Z,48.61
2022-09-02T17:44:47.079Z,49.31
2022-09-02T17:47:22.882Z,50.02
2022-09-02T17:50:17.978Z,50.41
2022-09-02T17:52:48.979Z,51.09
2022-09-02T17:55:22.774Z,51.54
2022-09-02T17:58:21.873Z,52.07
2022-09-02T18:01:35.353Z,52.78
2022-09-02T18:04:34.398Z,53.34
2022-09-02T18:08:08.896Z,53.91
2022-09-02T18:11:07.137Z,54.49
2022-09-02T18:14:56.943Z,54.95
2022-09-02T18:17:55.392Z,55.35
2022-09-02T18:20:50.353Z,55.87
2022-09-02T18:24:14.797Z,56.35
2022-09-02T18:27:18.480Z,56.80
2022-09-02T18:30:08.063Z,57.04
2022-09-02T18:33:17.106Z,57.55
2022-09-02T18:35:57.610Z,57.92
2022-09-02T18:39:34.260Z,58.31
2022-09-02T18:42:40.504Z,58.87
2022-09-02T18:45:25.682Z,59.21
2022-09-02T18:48:17.941Z,59.59
2022-09-02T18:51:35.895Z,59.85
2022-09-02T18:54:57.718Z,60.23
2022-09-02T18:57:33.659Z,60.39
2022-09-02T19:00:28.122Z,60.78
2022-09-02T19:03:29.718Z,61.02
2022-09-02T19:05:59.904Z,61.33
2022-09-02T19:08:43.043Z,61.53
2022-09-02T19:11:22.134Z,62.00
2022-09-02T19:13:57.324Z,62.19
2022-09-02T19:16:36.351Z,62.48
2022-09-02T19:19:19.019Z,62.80
2022-09-02T19:22:04.333Z,63.18
2022-09-02T19:24:49.832Z,63.41
2022-09-02T19:27:22.762Z,63.76
2022-09-02T19:30:01.473Z,64.02
2022-09-02T19:32:33.836Z,64.09
2022-09-02T19:35:09.338Z,64.42
2022-09-02T19:37:44.564Z,64.77
2022-09-02T19:40:20.727Z,65.00
2022-09-02T19:43:05.245Z,65.34
2022-09-02T19:45:37.504Z,65.48
2022-09-02T19:48:11.595Z,65.74
2022-09-02T19:50:43.759Z,66.08
2022-09-02T19:53:30.597Z,66.27
2022-09-02T19:56:00.549Z,66.46
2022-09-02T19:58:28.907Z,66.63
2022-09-02T20:00:57.299Z,66.91
2022-09-02T20:03:25.809Z,66.92
2022-09-02T20:09:15.055Z,67.16
2022-09-02T20:11:59.151Z,67.34
2022-09-02T20:14:45.678Z,67.52
2022-09-02T20:17:19.866Z,67.52
2022-09-02T20:19:55.723Z,67.57
2022-09-02T20:22:45.759Z,67.78
2022-09-02T20:25:18.795Z,67.73
2022-09-02T20:28:10.112Z,67.81
2022-09-02T20:30:47.853Z,67.86
2022-09-02T20:33:22.438Z,67.89
2022-09-02T20:36:14.208Z,67.91
2022-09-02T20:39:29.249Z,67.99
2022-09-02T20:43:04.851Z,67.78
2022-09-02T20:46:11.924Z,67.91
2022-09-02T20:49:24.506Z,67.94
2022-09-02T20:52:08.893Z,68.07
2022-09-02T20:59:20.877Z,68.16
2022-09-02T21:02:27.025Z,68.32
2022-09-02T21:05:30.442Z,68.28
2022-09-02T21:08:32.262Z,68.38
2022-09-02T21:11:13.607Z,68.40
2022-09-02T21:14:52.562Z,68.33
2022-09-02T21:18:28.517Z,68.35
2022-09-02T21:21:52.599Z,68.49
2022-09-02T21:25:05.816Z,68.59
2022-09-02T21:28:45.240Z,68.65
2022-09-02T21:32:22.329Z,68.70
2022-09-02T21:35:19.592Z,68.60
2022-09-02T21:38:02.476Z,68.84
2022-09-02T21:41:26.182Z,68.72
2022-09-02T21:45:20.073Z,68.83
2022-09-02T21:49:17.145Z,68.78
2022-09-02T21:52:40.158Z,69.00
2022-09-02T21:56:40.495Z,69.09
2022-09-02T21:59:38.023Z,69.11
2022-09-02T22:03:01.443Z,69.29
2022-09-02T22:06:41.323Z,69.29
2022-09-02T22:09:35.157Z,69.45
2022-09-02T22:12:27.492Z,69.38
2022-09-02T22:16:14.959Z,69.46
2022-09-02T22:19:15.416Z,69.54
2022-09-02T22:21:57.555Z,69.46
2022-09-02T22:24:37.534Z,69.49
2022-09-02T22:28:10.935Z,69.57
2022-09-02T22:31:11.153Z,69.53
2022-09-02T22:34:08.597Z,69.63
2022-09-02T22:37:10.513Z,69.82
2022-09-02T22:40:17.597Z,69.76
2022-09-02T22:43:23.895Z,69.85
2022-09-02T22:46:23.030Z,70.01
2022-09-02T22:49:52.107Z,70.09
2022-09-02T22:52:54.695Z,70.11
2022-09-02T22:56:04.932Z,70.20
2022-09-02T22:59:45.852Z,70.26
2022-09-02T23:03:08.717Z,70.18
2022-09-02T23:06:09.814Z,70.30
2022-09-02T23:08:48.925Z,70.23
2022-09-02T23:12:54.115Z,70.45
2022-09-02T23:16:11.865Z,70.34
2022-09-02T23:19:55.305Z,70.51
2022-09-02T23:23:08.119Z,70.45
2022-09-02T23:26:43.128Z,70.57
2022-09-02T23:29:41.379Z,70.54
2022-09-02T23:33:28.233Z,70.53
2022-09-02T23:36:44.420Z,70.59
2022-09-02T23:40:23.038Z,70.79
2022-09-02T23:43:27.720Z,70.76
2022-09-02T23:46:27.289Z,70.73
2022-09-02T23:50:12.070Z,70.74
2022-09-02T23:53:37.946Z,70.92
2022-09-02T23:57:19.589Z,70.92
